Terminal Aerodrome Forecast
Issued by NWS Albuquerque, NM

Home | Current Version | Previous Version | Text Only | Print | Product List | Glossary On
Versions: 1 2 3 4 5 6 7 8 9 10 11 12 13 14
000
FTUS45 KABQ 051737
TAFABQ
TAF
KABQ 051737Z 0518/0618 25006KT P6SM FEW070 SCT150
     FM052200 25010KT P6SM VCTS SCT060CB BKN130
      TEMPO 0522/0602 VRB15G25KT 6SM TSRA BKN060CB
     FM060200 28008KT P6SM -SHRA BKN060 BKN100
     FM060600 VRB05KT P6SM BKN100=

USA.gov is the U.S. government's official web portal to all federal, state and local government web resources and services.